createdAt,value
2022-10-22T00:00:16.554Z,25.20
2022-10-22T00:01:16.637Z,23.60
2022-10-22T00:02:17.020Z,23.60
2022-10-22T00:03:16.826Z,24.40
2022-10-22T00:04:16.907Z,23.70
2022-10-22T00:05:17.050Z,24.70
2022-10-22T00:06:17.138Z,24.40
2022-10-22T00:07:17.301Z,24.20
2022-10-22T00:08:17.371Z,25.60
2022-10-22T00:09:17.513Z,24.70
2022-10-22T00:10:17.582Z,26.10
2022-10-22T00:11:17.670Z,24.10
2022-10-22T00:12:17.785Z,23.30
2022-10-22T00:13:17.858Z,23.70
2022-10-22T00:14:17.981Z,23.30
2022-10-22T00:15:18.051Z,25.60
2022-10-22T00:16:18.143Z,25.20
2022-10-22T00:17:18.246Z,22.10
2022-10-22T00:18:18.338Z,23.20
2022-10-22T00:19:18.491Z,24.60
2022-10-22T00:20:18.579Z,23.60
2022-10-22T00:21:18.768Z,25.40
2022-10-22T00:22:18.840Z,23.60
2022-10-22T00:23:18.967Z,26.30
2022-10-22T00:24:19.124Z,23.80
2022-10-22T00:25:19.232Z,23.20
2022-10-22T00:26:19.368Z,24.90
2022-10-22T00:27:19.482Z,23.90
2022-10-22T00:28:19.686Z,24.00
2022-10-22T00:29:19.734Z,25.90
2022-10-22T00:30:19.841Z,25.00
2022-10-22T00:31:20.200Z,25.00
2022-10-22T00:32:20.055Z,24.80
2022-10-22T00:33:20.335Z,24.60
2022-10-22T00:34:20.286Z,23.80
2022-10-22T00:35:20.415Z,22.50
2022-10-22T00:36:20.544Z,23.90
2022-10-22T00:37:20.698Z,23.20
2022-10-22T00:38:20.854Z,21.50
2022-10-22T00:39:20.968Z,20.40
2022-10-22T00:40:21.034Z,18.90
2022-10-22T00:41:21.156Z,20.90
2022-10-22T00:42:21.276Z,20.90
2022-10-22T00:43:21.373Z,21.20
2022-10-22T00:44:21.525Z,21.60
2022-10-22T00:45:21.574Z,16.30
2022-10-22T00:46:21.671Z,17.00
2022-10-22T00:47:21.765Z,15.50
2022-10-22T00:48:21.860Z,13.80
2022-10-22T00:49:22.018Z,15.30
2022-10-22T00:50:22.070Z,15.90
2022-10-22T00:51:22.174Z,16.80
2022-10-22T00:52:22.275Z,56.70
2022-10-22T00:53:22.405Z,19.70
2022-10-22T00:54:22.523Z,23.80
2022-10-22T00:55:22.650Z,21.90
2022-10-22T00:56:22.722Z,22.90
2022-10-22T00:57:22.822Z,23.10
2022-10-22T00:58:22.921Z,22.70
2022-10-22T00:59:23.050Z,20.10
2022-10-22T01:00:23.208Z,19.00
2022-10-22T01:01:23.387Z,25.40
2022-10-22T01:02:23.417Z,20.20
2022-10-22T01:03:23.540Z,23.20
2022-10-22T01:04:23.658Z,27.80
2022-10-22T01:05:23.811Z,26.00
2022-10-22T01:06:23.901Z,25.30
2022-10-22T01:07:24.033Z,23.50
2022-10-22T01:08:24.193Z,23.40
2022-10-22T01:09:24.324Z,22.30
2022-10-22T01:10:24.416Z,19.80
2022-10-22T01:11:24.541Z,21.20
2022-10-22T01:12:24.744Z,19.60
2022-10-22T01:13:24.774Z,20.90
2022-10-22T01:14:24.865Z,19.80
2022-10-22T01:15:24.970Z,22.00
2022-10-22T01:16:25.082Z,20.70
2022-10-22T01:17:25.373Z,19.80
2022-10-22T01:18:25.295Z,20.80
2022-10-22T01:19:25.406Z,20.00
2022-10-22T01:20:25.514Z,22.80
2022-10-22T01:21:25.617Z,19.60
2022-10-22T01:22:25.798Z,21.60
2022-10-22T01:23:25.817Z,22.40
2022-10-22T01:24:25.954Z,22.80
2022-10-22T01:25:26.047Z,20.40
2022-10-22T01:26:26.154Z,22.30
2022-10-22T01:27:26.285Z,21.50
2022-10-22T01:28:26.375Z,21.40
2022-10-22T01:29:26.490Z,20.60
2022-10-22T01:30:26.601Z,21.70
2022-10-22T01:31:26.723Z,21.30
2022-10-22T01:32:26.906Z,21.60
2022-10-22T01:33:26.937Z,21.80
2022-10-22T01:34:27.053Z,21.10
2022-10-22T01:35:27.232Z,21.80
2022-10-22T01:36:27.286Z,22.20
2022-10-22T01:37:27.536Z,21.70
2022-10-22T01:38:27.493Z,19.20
2022-10-22T01:39:27.581Z,19.90
2022-10-22T01:40:27.690Z,22.30
2022-10-22T01:41:27.753Z,20.70
2022-10-22T01:42:27.893Z,27.40
2022-10-22T01:43:28.035Z,50.10
2022-10-22T01:44:28.074Z,29.20
2022-10-22T01:45:28.148Z,23.60
2022-10-22T01:46:28.257Z,29.60
2022-10-22T01:47:28.351Z,33.40
2022-10-22T01:48:28.537Z,29.10
2022-10-22T01:49:28.658Z,36.90
2022-10-22T01:50:28.669Z,30.10
2022-10-22T01:51:28.776Z,46.60
2022-10-22T01:52:28.854Z,20.30
2022-10-22T01:53:29.018Z,20.60
2022-10-22T01:54:29.037Z,19.80
2022-10-22T01:55:29.120Z,27.20
2022-10-22T01:56:29.231Z,20.10
2022-10-22T01:57:29.293Z,20.00
2022-10-22T01:58:29.527Z,20.70
2022-10-22T01:59:29.471Z,21.60
2022-10-22T02:00:29.636Z,21.40
2022-10-22T02:01:29.670Z,23.00
2022-10-22T02:02:29.757Z,23.50
2022-10-22T02:03:29.860Z,24.60
2022-10-22T02:04:29.939Z,28.20
2022-10-22T02:05:30.020Z,28.60
2022-10-22T02:06:30.131Z,39.20
2022-10-22T02:07:30.248Z,32.50
2022-10-22T02:08:30.415Z,58.30
2022-10-22T02:09:30.483Z,35.90
2022-10-22T02:10:30.605Z,41.60
2022-10-22T02:11:30.721Z,37.50
2022-10-22T02:12:30.868Z,49.00
2022-10-22T02:13:31.007Z,43.10
2022-10-22T02:14:31.074Z,40.00
2022-10-22T02:15:31.186Z,37.20
2022-10-22T02:16:31.270Z,56.20
2022-10-22T02:17:31.363Z,43.00
2022-10-22T02:18:31.481Z,53.90
2022-10-22T02:19:31.532Z,41.70
2022-10-22T02:20:31.621Z,36.20
2022-10-22T02:21:31.717Z,46.90
2022-10-22T02:22:31.945Z,53.90
2022-10-22T02:23:31.880Z,36.70
2022-10-22T02:24:31.963Z,74.50
2022-10-22T02:25:32.041Z,39.20
2022-10-22T02:26:32.123Z,49.80
2022-10-22T02:27:32.278Z,37.00
2022-10-22T02:28:32.309Z,45.70
2022-10-22T02:29:32.410Z,39.40
2022-10-22T02:30:32.612Z,58.70
2022-10-22T02:31:32.673Z,48.90
2022-10-22T02:32:32.753Z,61.00
2022-10-22T02:33:32.879Z,37.40
2022-10-22T02:34:33.000Z,38.90
2022-10-22T02:35:33.186Z,37.70
2022-10-22T02:36:33.265Z,40.70
2022-10-22T02:37:33.401Z,49.40
2022-10-22T02:38:33.546Z,33.40
2022-10-22T02:39:33.676Z,51.10
2022-10-22T02:40:33.841Z,69.80
2022-10-22T02:41:33.930Z,36.20
2022-10-22T02:42:34.076Z,48.40
2022-10-22T02:43:34.180Z,32.80
2022-10-22T02:44:34.271Z,35.20
2022-10-22T02:45:34.384Z,44.80
2022-10-22T02:46:34.568Z,33.40
2022-10-22T02:47:34.596Z,33.20
2022-10-22T02:48:34.715Z,35.40
2022-10-22T02:49:34.826Z,53.50
2022-10-22T02:50:34.930Z,36.50
2022-10-22T02:51:35.046Z,33.50
2022-10-22T02:52:35.225Z,36.50
2022-10-22T02:53:35.190Z,55.90
2022-10-22T02:54:35.283Z,39.50
2022-10-22T02:55:35.353Z,35.10
2022-10-22T02:56:35.429Z,37.20
2022-10-22T02:57:35.529Z,36.40
2022-10-22T02:58:35.567Z,33.20
2022-10-22T02:59:35.670Z,31.60
2022-10-22T03:00:35.780Z,36.50
2022-10-22T03:01:35.820Z,35.10
2022-10-22T03:02:35.985Z,38.00
2022-10-22T03:03:36.041Z,33.70
2022-10-22T03:04:36.163Z,32.80
2022-10-22T03:05:36.280Z,40.70
2022-10-22T03:06:36.386Z,30.30
2022-10-22T03:07:36.762Z,30.20
2022-10-22T03:08:36.625Z,29.20
2022-10-22T03:09:36.705Z,30.60
2022-10-22T03:10:36.805Z,30.10
2022-10-22T03:11:36.893Z,30.40
2022-10-22T03:12:37.014Z,30.80
2022-10-22T03:13:37.077Z,32.30
2022-10-22T03:14:37.124Z,29.70
2022-10-22T03:15:37.224Z,34.20
2022-10-22T03:16:37.274Z,31.10
2022-10-22T03:17:37.676Z,30.00
2022-10-22T03:18:37.555Z,36.30
2022-10-22T03:19:37.518Z,39.20
2022-10-22T03:20:37.590Z,32.40
2022-10-22T03:21:37.679Z,30.70
2022-10-22T03:22:37.756Z,32.60
2022-10-22T03:23:37.915Z,31.20
2022-10-22T03:24:37.932Z,31.50
2022-10-22T03:25:37.997Z,34.30
2022-10-22T03:26:38.068Z,29.90
2022-10-22T03:27:38.417Z,30.90
2022-10-22T03:28:38.348Z,31.40
2022-10-22T03:29:38.333Z,29.90
2022-10-22T03:30:38.436Z,34.40
2022-10-22T03:31:38.568Z,31.00
2022-10-22T03:32:38.637Z,29.50
2022-10-22T03:33:38.738Z,27.10
2022-10-22T03:34:38.894Z,34.30
2022-10-22T03:35:38.874Z,29.50
2022-10-22T03:36:38.946Z,28.20
2022-10-22T03:37:39.184Z,29.00
2022-10-22T03:38:39.108Z,33.20
2022-10-22T03:39:39.228Z,31.90
2022-10-22T03:40:39.286Z,32.00
2022-10-22T03:41:39.456Z,32.00
2022-10-22T03:42:39.469Z,28.40
2022-10-22T03:43:39.566Z,29.90
2022-10-22T03:44:39.657Z,28.10
2022-10-22T03:45:39.741Z,29.60
2022-10-22T03:46:39.900Z,29.10
2022-10-22T03:47:40.231Z,32.80
2022-10-22T03:48:39.998Z,26.80
2022-10-22T03:49:40.087Z,31.40
2022-10-22T03:50:40.181Z,29.90
2022-10-22T03:51:40.306Z,29.80
2022-10-22T03:52:40.372Z,30.20
2022-10-22T03:53:40.569Z,27.50
2022-10-22T03:54:40.574Z,26.90
2022-10-22T03:55:40.662Z,29.20
2022-10-22T03:56:40.759Z,37.80
2022-10-22T03:57:41.199Z,26.90
2022-10-22T03:58:41.019Z,31.10
2022-10-22T03:59:41.038Z,30.80
2022-10-22T04:00:41.126Z,27.60
2022-10-22T04:01:41.223Z,28.20
2022-10-22T04:02:41.306Z,30.60
2022-10-22T04:03:41.582Z,27.30
2022-10-22T04:04:41.478Z,30.10
2022-10-22T04:05:41.568Z,27.40
2022-10-22T04:06:41.652Z,29.80
2022-10-22T04:07:42.165Z,27.60
2022-10-22T04:08:41.978Z,34.20
2022-10-22T04:09:41.928Z,26.80
2022-10-22T04:10:42.026Z,26.90
2022-10-22T04:11:42.123Z,29.10
2022-10-22T04:12:42.221Z,28.40
2022-10-22T04:13:42.352Z,29.00
2022-10-22T04:14:42.559Z,30.00
2022-10-22T04:15:42.547Z,27.70
2022-10-22T04:16:42.615Z,30.40
2022-10-22T04:17:43.125Z,26.20
2022-10-22T04:18:42.817Z,25.80
2022-10-22T04:19:42.999Z,25.10
2022-10-22T04:20:43.058Z,24.70
2022-10-22T04:21:43.166Z,36.80
2022-10-22T04:22:43.281Z,22.50
2022-10-22T04:23:43.401Z,24.10
2022-10-22T04:24:43.661Z,23.50
2022-10-22T04:25:43.649Z,27.00
2022-10-22T04:26:43.770Z,24.20
2022-10-22T04:27:43.911Z,25.10
2022-10-22T04:28:44.014Z,26.70
2022-10-22T04:29:44.313Z,26.20
2022-10-22T04:30:44.262Z,22.60
2022-10-22T04:31:44.457Z,28.90
2022-10-22T04:32:44.522Z,23.80
2022-10-22T04:33:44.658Z,24.80
2022-10-22T04:34:44.821Z,26.50
2022-10-22T04:35:44.947Z,23.90
2022-10-22T04:36:45.114Z,25.10
2022-10-22T04:37:45.202Z,24.80
2022-10-22T04:38:45.324Z,21.80
2022-10-22T04:39:45.468Z,24.00
2022-10-22T04:40:45.608Z,24.00
2022-10-22T04:41:45.773Z,24.20
2022-10-22T04:42:45.879Z,22.60
2022-10-22T04:43:46.019Z,23.80
2022-10-22T04:44:46.154Z,22.50
2022-10-22T04:45:46.343Z,22.60
2022-10-22T04:46:46.560Z,23.30
2022-10-22T04:47:46.566Z,22.80
2022-10-22T04:48:46.711Z,21.50
2022-10-22T04:49:46.840Z,21.50
2022-10-22T04:50:46.953Z,20.80
2022-10-22T04:51:47.122Z,21.90
2022-10-22T04:52:47.203Z,23.70
2022-10-22T04:53:47.335Z,23.80
2022-10-22T04:54:47.455Z,22.20
2022-10-22T04:55:47.557Z,26.20
2022-10-22T04:56:47.759Z,23.90
2022-10-22T04:57:47.766Z,21.40
2022-10-22T04:58:47.866Z,22.40
2022-10-22T04:59:47.976Z,20.80
2022-10-22T05:00:48.141Z,22.60
2022-10-22T05:01:48.306Z,22.80
2022-10-22T05:02:48.277Z,32.90
2022-10-22T05:03:48.379Z,21.70
2022-10-22T05:04:48.479Z,21.90
2022-10-22T05:05:48.584Z,20.40
2022-10-22T05:06:48.731Z,22.60
2022-10-22T05:07:48.845Z,20.70
2022-10-22T05:08:49.116Z,22.20
2022-10-22T05:09:49.078Z,21.90
2022-10-22T05:10:49.214Z,17.80
2022-10-22T05:11:49.337Z,21.20
2022-10-22T05:12:49.464Z,19.70
2022-10-22T05:13:49.630Z,20.50
2022-10-22T05:14:49.682Z,19.10
2022-10-22T05:15:49.792Z,19.60
2022-10-22T05:16:49.910Z,21.10
2022-10-22T05:17:50.013Z,19.90
2022-10-22T05:18:50.181Z,20.00
2022-10-22T05:19:50.239Z,20.70
2022-10-22T05:20:50.367Z,20.90
2022-10-22T05:21:50.445Z,21.00
2022-10-22T05:22:50.562Z,22.10
2022-10-22T05:23:50.839Z,23.80
2022-10-22T05:24:50.788Z,21.40
2022-10-22T05:25:50.900Z,22.50
2022-10-22T05:26:51.028Z,19.90
2022-10-22T05:27:51.131Z,21.70
2022-10-22T05:28:51.282Z,21.00
2022-10-22T05:29:51.370Z,21.80
2022-10-22T05:30:51.485Z,20.00
2022-10-22T05:31:51.685Z,21.00
2022-10-22T05:32:51.773Z,20.70
2022-10-22T05:33:51.909Z,21.20
2022-10-22T05:34:52.041Z,19.60
2022-10-22T05:35:52.184Z,21.90
2022-10-22T05:36:52.360Z,21.10
2022-10-22T05:37:52.608Z,22.60
2022-10-22T05:38:52.635Z,21.20
2022-10-22T05:40:01.772Z,19.30
2022-10-22T05:40:52.841Z,21.10
2022-10-22T05:41:53.004Z,21.50
2022-10-22T05:42:53.062Z,20.50
2022-10-22T05:43:53.202Z,22.10
2022-10-22T05:44:53.288Z,21.30
2022-10-22T05:45:53.418Z,20.00
2022-10-22T05:46:53.540Z,21.80
2022-10-22T05:47:53.683Z,19.90
2022-10-22T05:48:53.800Z,19.50
2022-10-22T05:49:53.892Z,20.90
2022-10-22T05:50:53.998Z,17.60
2022-10-22T05:51:54.105Z,19.10
2022-10-22T05:52:54.263Z,19.30
2022-10-22T05:53:54.321Z,20.30
2022-10-22T05:54:54.457Z,18.80
2022-10-22T05:55:54.538Z,19.90
2022-10-22T05:56:54.640Z,20.60
2022-10-22T05:57:54.795Z,19.20
2022-10-22T05:58:54.946Z,21.20
2022-10-22T05:59:54.979Z,20.00
2022-10-22T06:00:55.088Z,20.40
2022-10-22T06:01:55.243Z,20.00
2022-10-22T06:02:55.332Z,19.50
2022-10-22T06:03:55.408Z,20.30
2022-10-22T06:04:55.531Z,21.30
2022-10-22T06:05:55.668Z,21.00
2022-10-22T06:06:55.746Z,18.40
2022-10-22T06:07:55.848Z,17.60
2022-10-22T06:08:55.978Z,20.80
2022-10-22T06:09:56.086Z,18.40
2022-10-22T06:10:56.179Z,18.70
2022-10-22T06:11:56.250Z,18.40
2022-10-22T06:12:56.345Z,19.40
2022-10-22T06:13:56.448Z,19.40
2022-10-22T06:14:56.568Z,18.80
2022-10-22T06:15:56.637Z,18.40
2022-10-22T06:16:56.729Z,18.80
2022-10-22T06:17:56.901Z,17.60
2022-10-22T06:18:56.934Z,19.10
2022-10-22T06:19:57.112Z,18.00
2022-10-22T06:20:57.209Z,17.60
2022-10-22T06:21:57.339Z,16.20
2022-10-22T06:22:57.572Z,15.50
2022-10-22T06:23:57.604Z,16.90
2022-10-22T06:24:57.732Z,18.40
2022-10-22T06:25:57.890Z,19.40
2022-10-22T06:26:57.980Z,16.70
2022-10-22T06:27:58.137Z,18.90
2022-10-22T06:28:58.235Z,18.50
2022-10-22T06:29:58.350Z,19.20
2022-10-22T06:30:58.468Z,19.00
2022-10-22T06:31:58.585Z,17.10
2022-10-22T06:32:58.737Z,18.10
2022-10-22T06:33:58.818Z,17.60
2022-10-22T06:34:58.943Z,18.50
2022-10-22T06:35:59.500Z,18.40
2022-10-22T06:36:59.177Z,18.60
2022-10-22T06:37:59.327Z,16.90
2022-10-22T06:38:59.414Z,18.50
2022-10-22T06:39:59.638Z,17.00
2022-10-22T06:40:59.637Z,18.30
2022-10-22T06:41:59.764Z,15.10
2022-10-22T06:42:59.846Z,16.00
2022-10-22T06:44:00.029Z,17.20
2022-10-22T06:46:00.263Z,16.70
2022-10-22T06:47:00.401Z,17.80
2022-10-22T06:48:00.543Z,17.50
2022-10-22T06:49:00.677Z,17.30
2022-10-22T06:50:00.931Z,18.50
2022-10-22T06:51:00.962Z,19.90
2022-10-22T06:52:01.011Z,16.20
2022-10-22T06:53:01.126Z,18.00
2022-10-22T06:54:01.243Z,16.50
2022-10-22T06:55:01.384Z,19.60
2022-10-22T06:56:01.583Z,18.50
2022-10-22T06:57:01.655Z,20.50
2022-10-22T06:58:01.811Z,20.00
2022-10-22T06:59:01.933Z,18.90
2022-10-22T07:00:02.082Z,18.10
2022-10-22T07:01:02.430Z,17.70
2022-10-22T07:02:02.372Z,17.20
2022-10-22T07:03:02.520Z,17.90
2022-10-22T07:04:02.688Z,17.40
2022-10-22T07:05:02.813Z,22.00
2022-10-22T07:06:02.983Z,18.70
2022-10-22T07:07:03.094Z,19.60
2022-10-22T07:08:03.239Z,18.90
2022-10-22T07:09:03.504Z,17.70
2022-10-22T07:10:03.487Z,20.10
2022-10-22T07:11:03.646Z,18.30
2022-10-22T07:12:03.756Z,20.10
2022-10-22T07:13:03.963Z,20.30
2022-10-22T07:14:04.084Z,20.90
2022-10-22T07:15:04.150Z,22.00
2022-10-22T07:16:04.250Z,19.70
2022-10-22T07:17:04.368Z,20.00
2022-10-22T07:18:04.611Z,18.10
2022-10-22T07:19:04.588Z,21.00
2022-10-22T07:20:04.698Z,21.30
2022-10-22T07:21:04.818Z,18.90
2022-10-22T07:22:04.931Z,19.50
2022-10-22T07:23:05.073Z,19.90
2022-10-22T07:24:05.195Z,21.00
2022-10-22T07:25:07.472Z,21.00
2022-10-22T07:26:05.383Z,21.00
2022-10-22T07:27:09.372Z,21.10
2022-10-22T07:28:05.634Z,21.40
2022-10-22T07:29:05.710Z,20.70
2022-10-22T07:30:05.843Z,21.70
2022-10-22T07:31:05.927Z,20.60
2022-10-22T07:32:06.044Z,21.40
2022-10-22T07:33:06.217Z,21.30
2022-10-22T07:34:06.374Z,20.60
2022-10-22T07:35:06.387Z,23.50
2022-10-22T07:36:06.500Z,23.20
2022-10-22T07:37:06.604Z,23.00
2022-10-22T07:38:06.757Z,21.70
2022-10-22T07:39:06.835Z,23.10
2022-10-22T07:40:06.948Z,20.70
2022-10-22T07:41:07.077Z,20.00
2022-10-22T07:42:07.172Z,18.80
2022-10-22T07:43:07.318Z,22.00
2022-10-22T07:44:07.383Z,23.70
2022-10-22T07:45:07.498Z,20.70
2022-10-22T07:46:07.618Z,23.80
2022-10-22T07:47:07.690Z,22.10
2022-10-22T07:48:07.890Z,23.20
2022-10-22T07:49:07.891Z,23.10
2022-10-22T07:50:08.016Z,20.10
2022-10-22T07:51:08.100Z,24.40
2022-10-22T07:52:08.205Z,22.50
2022-10-22T07:53:08.447Z,20.60
2022-10-22T07:54:08.407Z,22.70
2022-10-22T07:55:08.509Z,22.50
2022-10-22T07:56:08.616Z,21.90
2022-10-22T07:57:08.732Z,20.90
2022-10-22T07:58:08.879Z,22.90
2022-10-22T07:59:09.000Z,23.40
2022-10-22T08:00:09.063Z,22.00
2022-10-22T08:01:09.287Z,23.00
2022-10-22T08:02:09.308Z,23.30
2022-10-22T08:03:09.429Z,23.20
2022-10-22T08:04:09.546Z,22.20
2022-10-22T08:05:09.669Z,22.20
2022-10-22T08:06:09.831Z,21.70
2022-10-22T08:07:09.976Z,20.90
2022-10-22T08:08:10.053Z,22.40
2022-10-22T08:09:10.219Z,22.90
2022-10-22T08:10:10.343Z,21.50
2022-10-22T08:11:10.994Z,22.40
2022-10-22T08:12:10.682Z,22.50
2022-10-22T08:13:10.834Z,24.00
2022-10-22T08:14:10.875Z,21.80
2022-10-22T08:15:11.069Z,23.30
2022-10-22T08:16:11.091Z,22.60
2022-10-22T08:17:11.360Z,21.30
2022-10-22T08:18:11.275Z,22.00
2022-10-22T08:19:11.370Z,21.40
2022-10-22T08:20:11.476Z,22.40
2022-10-22T08:21:11.618Z,23.30
2022-10-22T08:22:11.686Z,23.60
2022-10-22T08:23:11.792Z,20.80
2022-10-22T08:24:11.898Z,21.10
2022-10-22T08:25:11.996Z,22.10
2022-10-22T08:26:12.129Z,22.60
2022-10-22T08:27:12.461Z,21.00
2022-10-22T08:28:12.300Z,20.60
2022-10-22T08:29:12.399Z,21.40
2022-10-22T08:30:12.501Z,23.10
2022-10-22T08:31:12.688Z,22.20
2022-10-22T08:32:13.014Z,22.50
2022-10-22T08:33:12.828Z,21.10
2022-10-22T08:34:12.913Z,19.10
2022-10-22T08:35:15.440Z,20.90
2022-10-22T08:36:13.110Z,19.70
2022-10-22T08:37:13.342Z,22.60
2022-10-22T08:38:13.312Z,20.90
2022-10-22T08:39:13.424Z,22.30
2022-10-22T08:40:13.526Z,23.10
2022-10-22T08:41:13.644Z,22.10
2022-10-22T08:42:13.794Z,20.20
2022-10-22T08:43:13.834Z,21.00
2022-10-22T08:44:14.013Z,22.50
2022-10-22T08:45:14.064Z,21.60
2022-10-22T08:46:14.139Z,21.70
2022-10-22T08:47:18.602Z,20.90
2022-10-22T08:48:14.355Z,20.20
2022-10-22T08:49:14.594Z,21.10
2022-10-22T08:50:14.554Z,18.60
2022-10-22T08:51:14.638Z,18.10
2022-10-22T08:52:14.727Z,21.40
2022-10-22T08:53:14.806Z,20.00
2022-10-22T08:54:14.922Z,22.00
2022-10-22T08:55:15.113Z,21.60
2022-10-22T08:56:15.077Z,21.20
2022-10-22T08:57:15.174Z,21.80
2022-10-22T08:58:23.240Z,19.10
2022-10-22T08:59:15.376Z,19.50
2022-10-22T09:00:15.553Z,20.50
2022-10-22T09:01:15.615Z,18.80
2022-10-22T09:02:15.672Z,18.60
2022-10-22T09:03:15.790Z,19.60
2022-10-22T09:04:15.909Z,19.90
2022-10-22T09:05:16.485Z,18.60
2022-10-22T09:06:16.140Z,19.50
2022-10-22T09:07:16.296Z,18.80
2022-10-22T09:08:16.331Z,20.40
2022-10-22T09:09:16.481Z,18.50
2022-10-22T09:10:16.527Z,18.30
2022-10-22T09:11:16.623Z,19.70
2022-10-22T09:12:20.167Z,20.10
2022-10-22T09:13:16.827Z,19.40
2022-10-22T09:14:16.973Z,18.90
2022-10-22T09:15:17.052Z,19.30
2022-10-22T09:16:17.154Z,20.10
2022-10-22T09:17:17.292Z,18.00
2022-10-22T09:18:17.367Z,19.80
2022-10-22T09:19:17.465Z,19.90
2022-10-22T09:20:17.635Z,21.40
2022-10-22T09:21:17.711Z,21.10
2022-10-22T09:22:17.799Z,19.50
2022-10-22T09:23:17.897Z,19.50
2022-10-22T09:24:18.006Z,21.10
2022-10-22T09:25:18.209Z,19.10
2022-10-22T09:26:18.221Z,20.90
2022-10-22T09:27:18.328Z,20.60
2022-10-22T09:28:18.439Z,21.40
2022-10-22T09:29:18.555Z,18.70
2022-10-22T09:30:18.754Z,19.80
2022-10-22T09:31:18.761Z,22.30
2022-10-22T09:32:18.856Z,18.40
2022-10-22T09:33:21.523Z,18.40
2022-10-22T09:34:19.071Z,17.90
2022-10-22T09:35:19.201Z,18.90
2022-10-22T09:36:19.388Z,18.00
2022-10-22T09:37:19.428Z,19.60
2022-10-22T09:38:19.507Z,18.60
2022-10-22T09:39:19.604Z,18.40
2022-10-22T09:40:19.709Z,18.30
2022-10-22T09:41:20.039Z,18.10
2022-10-22T09:42:19.915Z,18.80
2022-10-22T09:43:20.016Z,17.00
2022-10-22T09:44:20.130Z,19.90
2022-10-22T09:45:20.205Z,19.50
2022-10-22T09:46:20.582Z,20.00
2022-10-22T09:47:23.542Z,20.10
2022-10-22T09:48:20.489Z,17.00
2022-10-22T09:49:20.582Z,19.40
2022-10-22T09:50:20.680Z,17.80
2022-10-22T09:51:26.275Z,18.50
2022-10-22T09:52:20.899Z,19.30
2022-10-22T09:53:20.964Z,17.80
2022-10-22T09:54:21.062Z,20.10
2022-10-22T09:55:21.152Z,18.00
2022-10-22T09:56:21.254Z,17.90
2022-10-22T09:57:21.537Z,16.70
2022-10-22T09:58:21.483Z,17.30
2022-10-22T09:59:21.586Z,17.80
2022-10-22T10:00:21.687Z,16.90
2022-10-22T10:01:21.792Z,18.40
2022-10-22T10:02:37.514Z,18.40
2022-10-22T10:03:22.019Z,18.00
2022-10-22T10:04:22.154Z,17.50
2022-10-22T10:05:22.237Z,18.40
2022-10-22T10:06:22.249Z,17.10
2022-10-22T10:07:22.329Z,17.00
2022-10-22T10:08:22.432Z,17.00
2022-10-22T10:09:22.572Z,16.60
2022-10-22T10:10:22.733Z,16.80
2022-10-22T10:11:26.709Z,17.30
2022-10-22T10:12:22.755Z,16.10
2022-10-22T10:13:22.852Z,17.60
2022-10-22T10:14:22.939Z,15.60
2022-10-22T10:15:23.067Z,15.50
2022-10-22T10:16:23.162Z,15.80
2022-10-22T10:17:23.276Z,18.30
2022-10-22T10:18:23.365Z,16.10
2022-10-22T10:19:23.473Z,16.00
2022-10-22T10:20:23.572Z,17.70
2022-10-22T10:21:23.707Z,16.00
2022-10-22T10:22:23.788Z,16.80
2022-10-22T10:23:25.244Z,17.80
2022-10-22T10:24:24.020Z,16.20
2022-10-22T10:25:24.109Z,14.70
2022-10-22T10:26:24.343Z,13.40
2022-10-22T10:27:24.353Z,15.30
2022-10-22T10:28:24.484Z,14.00
2022-10-22T10:29:24.653Z,15.80
2022-10-22T10:30:24.726Z,13.90
2022-10-22T10:31:24.889Z,13.80
2022-10-22T10:32:25.020Z,11.30
2022-10-22T10:33:25.102Z,13.70
2022-10-22T10:34:25.195Z,12.40
2022-10-22T10:35:25.291Z,12.00
2022-10-22T10:36:25.417Z,11.50
2022-10-22T10:37:25.521Z,12.10
2022-10-22T10:38:28.753Z,11.10
2022-10-22T10:39:25.707Z,12.90
2022-10-22T10:40:25.772Z,12.00
2022-10-22T10:41:25.900Z,12.70
2022-10-22T10:42:25.991Z,13.40
2022-10-22T10:43:26.063Z,13.10
2022-10-22T10:44:26.158Z,12.40
2022-10-22T10:45:26.251Z,12.20
2022-10-22T10:46:26.401Z,11.30
2022-10-22T10:47:26.443Z,13.50
2022-10-22T10:48:26.524Z,13.10
2022-10-22T10:49:26.615Z,11.40
2022-10-22T10:50:26.706Z,11.80
2022-10-22T10:51:26.832Z,13.20
2022-10-22T10:52:26.941Z,10.60
2022-10-22T10:53:26.986Z,13.20
2022-10-22T10:54:27.195Z,12.20
2022-10-22T10:55:27.224Z,12.60
2022-10-22T10:56:27.318Z,10.30
2022-10-22T10:57:27.528Z,10.80
2022-10-22T10:58:27.563Z,10.60
2022-10-22T10:59:27.672Z,11.70
2022-10-22T11:00:58.201Z,11.10
2022-10-22T11:01:27.943Z,10.60
2022-10-22T11:02:28.049Z,10.50
2022-10-22T11:03:28.124Z,11.50
2022-10-22T11:04:28.245Z,11.70
2022-10-22T11:05:28.357Z,10.20
2022-10-22T11:06:28.481Z,13.10
2022-10-22T11:07:34.727Z,12.10
2022-10-22T11:08:28.769Z,11.60
2022-10-22T11:09:28.826Z,11.00
2022-10-22T11:10:28.948Z,12.30
2022-10-22T11:11:29.104Z,12.80
2022-10-22T11:12:29.194Z,11.80
2022-10-22T11:13:29.349Z,11.40
2022-10-22T11:14:30.178Z,14.60
2022-10-22T11:15:29.557Z,12.10
2022-10-22T11:16:29.669Z,10.40
2022-10-22T11:17:29.775Z,11.40
2022-10-22T11:18:29.927Z,10.50
2022-10-22T11:19:49.801Z,11.10
2022-10-22T11:20:30.120Z,11.90
2022-10-22T11:21:30.261Z,15.40
2022-10-22T11:22:30.355Z,11.40
2022-10-22T11:23:30.462Z,10.70
2022-10-22T11:24:30.618Z,12.00
2022-10-22T11:25:30.702Z,10.60
2022-10-22T11:26:30.841Z,11.30
2022-10-22T11:27:30.934Z,11.30
2022-10-22T11:28:30.996Z,12.70
2022-10-22T11:29:32.937Z,11.10
2022-10-22T11:30:31.216Z,11.70
2022-10-22T11:31:31.453Z,11.10
2022-10-22T11:32:31.397Z,12.70
2022-10-22T11:33:31.490Z,11.50
2022-10-22T11:34:34.143Z,12.40
2022-10-22T11:35:31.667Z,13.30
2022-10-22T11:37:31.901Z,11.00
2022-10-22T11:38:34.189Z,14.90
2022-10-22T11:39:32.138Z,14.10
2022-10-22T11:40:32.269Z,12.10
2022-10-22T11:41:32.406Z,12.20
2022-10-22T11:42:32.488Z,11.70
2022-10-22T11:43:32.574Z,13.70
2022-10-22T11:44:32.634Z,13.40
2022-10-22T11:45:32.730Z,12.80
2022-10-22T11:46:32.844Z,12.50
2022-10-22T11:47:32.928Z,12.80
2022-10-22T11:48:32.996Z,12.20
2022-10-22T11:49:33.085Z,11.30
2022-10-22T11:50:33.158Z,12.50
2022-10-22T11:51:33.318Z,13.00
2022-10-22T11:52:33.319Z,11.80
2022-10-22T11:53:33.413Z,14.80
2022-10-22T11:54:33.507Z,11.70
2022-10-22T11:55:33.595Z,13.30
2022-10-22T11:56:33.740Z,12.50
2022-10-22T11:57:33.762Z,13.60
2022-10-22T11:58:33.870Z,14.10
2022-10-22T11:59:33.940Z,12.90
2022-10-22T12:00:34.033Z,11.50
2022-10-22T12:02:35.305Z,11.60
2022-10-22T12:03:34.294Z,11.30
2022-10-22T12:04:34.424Z,13.60
2022-10-22T12:05:34.453Z,13.00
2022-10-22T12:06:34.573Z,11.30
2022-10-22T12:07:34.675Z,13.20
2022-10-22T12:08:34.771Z,11.90
2022-10-22T12:09:34.811Z,12.50
2022-10-22T12:10:34.907Z,13.60
2022-10-22T12:11:35.012Z,14.50
2022-10-22T12:12:35.223Z,12.60
2022-10-22T12:13:35.181Z,11.40
2022-10-22T12:14:35.296Z,10.40
2022-10-22T12:15:35.368Z,11.00
2022-10-22T12:16:55.149Z,10.60
2022-10-22T12:17:35.622Z,12.80
2022-10-22T12:18:35.692Z,12.60
2022-10-22T12:19:35.796Z,12.10
2022-10-22T12:20:35.876Z,12.10
2022-10-22T12:21:35.975Z,12.60
2022-10-22T12:22:36.095Z,10.90
2022-10-22T12:23:36.181Z,11.80
2022-10-22T12:24:36.278Z,12.60
2022-10-22T12:25:36.380Z,10.60
2022-10-22T12:26:36.470Z,12.30
2022-10-22T12:27:36.652Z,11.10
2022-10-22T12:28:36.692Z,11.50
2022-10-22T12:29:36.812Z,12.20
2022-10-22T12:30:36.949Z,13.90
2022-10-22T12:31:37.016Z,14.40
2022-10-22T12:32:37.142Z,11.60
2022-10-22T12:33:37.197Z,11.80
2022-10-22T12:34:37.278Z,12.10
2022-10-22T12:35:37.357Z,12.60
2022-10-22T12:36:37.442Z,12.80
2022-10-22T12:37:37.838Z,12.60
2022-10-22T12:38:37.636Z,11.80
2022-10-22T12:39:37.742Z,11.60
2022-10-22T12:40:37.861Z,10.60
2022-10-22T12:41:37.954Z,12.00
2022-10-22T12:42:38.103Z,12.10
2022-10-22T12:43:38.146Z,12.10
2022-10-22T12:44:38.221Z,10.00
2022-10-22T12:45:38.347Z,11.80
2022-10-22T12:46:38.439Z,11.70
2022-10-22T12:47:38.980Z,11.50
2022-10-22T12:48:38.643Z,10.40
2022-10-22T12:49:38.747Z,10.20
2022-10-22T12:50:38.855Z,9.80
2022-10-22T12:51:38.967Z,11.20
2022-10-22T12:52:39.538Z,9.50
2022-10-22T12:53:39.185Z,9.00
2022-10-22T12:54:39.271Z,10.40
2022-10-22T12:55:39.368Z,10.00
2022-10-22T12:56:39.469Z,10.70